Time;durP1;ratioP1;P1;durP2;ratioP2;P2;SDS_P1;SDS_P2;PMS_P1;PMS_P2;Temp;Humidity;BMP_temperature;BMP_pressure;BME280_temperature;BME280_humidity;BME280_pressure;Samples;Min_cycle;Max_cycle;Signal;HPM_P1;HPM_P2
2022/01/05 00:00:26;;;;;;;3.20;2.87;;;;;;;7.16;92.73;96613.75;4852877;29;20641;-84
2022/01/05 00:02:54;;;;;;;3.73;3.33;;;;;;;7.08;93.54;96610.09;4852349;29;21029;-84
2022/01/05 00:05:23;;;;;;;4.00;3.50;;;;;;;7.05;93.42;96606.00;4851208;29;21216;-83
2022/01/05 00:07:51;;;;;;;4.77;3.43;;;;;;;7.02;95.20;96607.97;4852011;29;20699;-84
2022/01/05 00:10:19;;;;;;;3.10;2.57;;;;;;;7.04;95.29;96608.72;4852650;29;20624;-83
2022/01/05 00:12:49;;;;;;;3.93;3.20;;;;;;;7.06;93.60;96610.22;4852926;29;21182;-83
2022/01/05 00:15:17;;;;;;;4.83;3.27;;;;;;;7.06;94.89;96610.22;4854879;29;20642;-83
2022/01/05 00:17:45;;;;;;;3.30;3.00;;;;;;;7.05;94.64;96597.38;4856320;29;21190;-83
2022/01/05 00:20:14;;;;;;;4.33;3.47;;;;;;;7.01;94.53;96590.81;4856839;29;20625;-83
2022/01/05 00:22:42;;;;;;;4.70;3.03;;;;;;;7.00;93.47;96603.88;4866108;29;21030;-84
2022/01/05 00:25:11;;;;;;;3.77;3.33;;;;;;;7.01;94.80;96596.00;4859560;29;20656;-83
2022/01/05 00:27:39;;;;;;;3.60;3.00;;;;;;;7.00;94.62;96590.94;4858583;29;21014;-83
2022/01/05 00:30:10;;;;;;;3.57;3.23;;;;;;;7.01;95.37;96593.41;4857364;29;20633;-83
2022/01/05 00:32:38;;;;;;;3.50;3.07;;;;;;;7.02;95.14;96597.63;4850395;29;20612;-83
2022/01/05 00:35:07;;;;;;;3.13;2.47;;;;;;;7.03;94.56;96601.88;4857975;29;20636;-83
2022/01/05 00:37:35;;;;;;;3.40;3.00;;;;;;;7.06;95.46;96596.44;4860075;29;21197;-83
2022/01/05 00:40:04;;;;;;;3.90;3.20;;;;;;;7.09;94.63;96589.25;4867280;29;20632;-83
2022/01/05 00:42:33;;;;;;;3.47;2.93;;;;;;;7.09;94.48;96586.66;4847554;29;20658;-83
2022/01/05 00:45:01;;;;;;;4.50;3.27;;;;;;;7.10;94.03;96590.09;4855956;29;21296;-83
2022/01/05 00:47:31;;;;;;;4.10;3.33;;;;;;;7.13;95.41;96582.88;4854949;29;20651;-83
2022/01/05 00:49:59;;;;;;;3.20;2.80;;;;;;;7.15;94.62;96569.81;4855718;29;20663;-83
2022/01/05 00:52:27;;;;;;;3.57;2.70;;;;;;;7.20;95.42;96572.84;4863942;29;21296;-84
2022/01/05 00:54:55;;;;;;;2.80;2.50;;;;;;;7.24;94.79;96572.47;4856209;29;20645;-83
2022/01/05 00:57:23;;;;;;;2.90;2.30;;;;;;;7.26;93.62;96570.59;4866945;29;20637;-84
2022/01/05 00:59:51;;;;;;;3.13;2.47;;;;;;;7.27;94.53;96572.25;4852644;29;21207;-84
2022/01/05 01:02:19;;;;;;;2.30;2.10;;;;;;;7.25;94.59;96566.34;4854317;29;20651;-83
2022/01/05 01:04:50;;;;;;;3.20;2.20;;;;;;;7.28;93.77;96552.34;4871993;29;20626;-84
2022/01/05 01:07:18;;;;;;;1.90;1.70;;;;;;;7.30;93.47;96551.25;4856896;29;20652;-84
2022/01/05 01:09:46;;;;;;;2.63;1.70;;;;;;;7.33;93.97;96555.38;4852235;29;20640;-84
2022/01/05 01:12:15;;;;;;;2.27;1.67;;;;;;;7.34;93.55;96544.88;4859024;29;20632;-84
2022/01/05 01:14:43;;;;;;;2.43;2.23;;;;;;;7.29;93.51;96547.03;4854819;29;21185;-83
2022/01/05 01:17:11;;;;;;;1.77;1.47;;;;;;;7.29;94.08;96552.22;4862770;29;21023;-84
2022/01/05 01:19:39;;;;;;;2.97;1.63;;;;;;;7.30;93.30;96553.84;4851183;29;20968;-84
2022/01/05 01:22:09;;;;;;;2.33;1.50;;;;;;;7.32;93.29;96557.16;4847863;29;20645;-84
2022/01/05 01:24:37;;;;;;;1.70;1.33;;;;;;;7.33;92.84;96569.16;4848648;29;20631;-84
2022/01/05 01:27:05;;;;;;;2.50;1.07;;;;;;;7.35;93.85;96576.81;4844645;29;20728;-83
2022/01/05 01:29:33;;;;;;;1.67;1.20;;;;;;;7.37;92.68;96573.16;4848107;29;20733;-83
2022/01/05 01:32:04;;;;;;;1.27;0.90;;;;;;;7.36;93.08;96568.91;4856405;29;20646;-83
2022/01/05 01:34:32;;;;;;;1.20;0.80;;;;;;;7.39;92.53;96570.44;4859202;29;21182;-83
2022/01/05 01:37:00;;;;;;;1.40;0.87;;;;;;;7.43;93.39;96571.81;4865061;29;20638;-83
2022/01/05 01:39:30;;;;;;;1.20;0.60;;;;;;;7.43;91.93;96584.78;4870127;29;20634;-83
2022/01/05 01:41:59;;;;;;;0.80;0.50;;;;;;;7.38;92.29;96592.13;4854770;29;20690;-84
2022/01/05 01:44:27;;;;;;;0.97;0.60;;;;;;;7.34;92.78;96591.56;4848325;29;20643;-84
2022/01/05 01:46:55;;;;;;;0.97;0.40;;;;;;;7.19;91.58;96597.94;4868215;29;21218;-83
2022/01/05 01:49:23;;;;;;;1.40;0.53;;;;;;;7.04;94.42;96593.97;4854860;29;20682;-84
2022/01/05 01:51:51;;;;;;;1.00;0.53;;;;;;;7.06;93.01;96599.03;4839848;29;20636;-83
2022/01/05 01:54:19;;;;;;;1.00;0.50;;;;;;;7.06;93.25;96599.03;4857762;29;20624;-83
2022/01/05 01:56:49;;;;;;;0.80;0.33;;;;;;;7.03;93.96;96601.06;4854581;29;20619;-83
2022/01/05 01:59:17;;;;;;;1.00;0.53;;;;;;;7.02;92.40;96589.84;4831962;29;20647;-83
2022/01/05 02:01:45;;;;;;;1.03;0.57;;;;;;;6.94;93.34;96578.44;4846039;29;20760;-84
2022/01/05 02:04:15;;;;;;;0.80;0.40;;;;;;;6.91;92.81;96578.69;4852320;29;20665;-83
2022/01/05 02:06:43;;;;;;;0.80;0.40;;;;;;;6.91;94.74;96576.91;4861764;29;20660;-84
2022/01/05 02:09:11;;;;;;;2.13;0.37;;;;;;;6.87;95.53;96582.44;4851970;29;20660;-83
2022/01/05 02:11:40;;;;;;;0.93;0.50;;;;;;;6.83;94.75;96594.00;4848825;29;20623;-83
2022/01/05 02:14:09;;;;;;;0.90;0.40;;;;;;;6.75;95.08;96584.25;4851612;29;20618;-83
2022/01/05 02:16:42;;;;;;;0.83;0.40;;;;;;;6.73;95.10;96593.88;4849412;29;21224;-84
2022/01/05 02:19:10;;;;;;;0.83;0.40;;;;;;;6.71;95.44;96595.78;4864187;29;20634;-83
2022/01/05 02:21:42;;;;;;;1.03;0.40;;;;;;;6.72;95.15;96605.19;4850129;29;20626;-84
2022/01/05 02:24:11;;;;;;;1.57;0.40;;;;;;;6.70;96.83;96614.84;4852669;29;21049;-84
2022/01/05 02:26:40;;;;;;;0.90;0.40;;;;;;;6.69;96.15;96614.94;4853549;29;21019;-84
2022/01/05 02:29:08;;;;;;;1.33;0.60;;;;;;;6.68;96.47;96603.78;4858803;29;20619;-83
2022/01/05 02:31:36;;;;;;;0.90;0.40;;;;;;;6.51;97.96;96598.25;4858325;29;20629;-83
2022/01/05 02:34:05;;;;;;;1.63;0.50;;;;;;;6.49;97.96;96602.72;4855523;29;20673;-83
2022/01/05 02:36:33;;;;;;;0.73;0.40;;;;;;;6.48;98.54;96601.06;4855813;29;20634;-83
2022/01/05 02:39:03;;;;;;;0.90;0.60;;;;;;;6.49;99.16;96596.72;4846357;29;20649;-83
2022/01/05 02:41:31;;;;;;;0.90;0.30;;;;;;;6.51;98.89;96597.41;4855278;29;20628;-83
2022/01/05 02:44:00;;;;;;;0.83;0.40;;;;;;;6.49;99.43;96597.53;4853877;29;20670;-83
2022/01/05 02:46:28;;;;;;;0.90;0.60;;;;;;;6.56;98.58;96601.31;4857020;29;21168;-83
2022/01/05 02:48:56;;;;;;;0.70;0.40;;;;;;;6.64;98.36;96606.72;4844146;29;20645;-83
2022/01/05 02:51:24;;;;;;;1.40;0.50;;;;;;;6.75;98.60;96610.16;4846966;29;20629;-83
2022/01/05 02:53:52;;;;;;;0.90;0.40;;;;;;;6.84;98.19;96611.19;4862771;29;20626;-83
2022/01/05 02:56:22;;;;;;;1.03;0.50;;;;;;;6.92;98.92;96603.66;4862597;29;20653;-84
2022/01/05 02:58:50;;;;;;;0.77;0.40;;;;;;;6.93;98.84;96610.47;4864106;29;20630;-84
2022/01/05 03:01:18;;;;;;;2.80;0.63;;;;;;;6.99;98.44;96625.53;4850825;29;21212;-83
2022/01/05 03:03:47;;;;;;;1.93;0.50;;;;;;;7.06;98.34;96622.34;4851297;29;20652;-84
2022/01/05 03:06:15;;;;;;;1.43;0.60;;;;;;;7.13;97.46;96623.53;4851471;29;21224;-83
2022/01/05 03:08:43;;;;;;;1.43;0.70;;;;;;;7.15;97.97;96614.69;4845886;29;20631;-83
2022/01/05 03:11:11;;;;;;;0.87;0.40;;;;;;;7.14;96.28;96617.38;4853854;29;20612;-84
2022/01/05 03:13:41;;;;;;;1.10;0.50;;;;;;;7.10;96.53;96610.81;4864842;29;20633;-83
2022/01/05 03:16:09;;;;;;;0.80;0.40;;;;;;;7.01;95.26;96615.91;4853828;29;20629;-83
2022/01/05 03:18:37;;;;;;;0.90;0.50;;;;;;;7.03;96.78;96613.03;4838464;29;21197;-84
2022/01/05 03:21:05;;;;;;;0.90;0.40;;;;;;;6.99;95.64;96612.59;4871875;29;20678;-83
2022/01/05 03:23:33;;;;;;;1.10;0.43;;;;;;;6.91;95.11;96612.38;4854612;29;21010;-84
2022/01/05 03:26:01;;;;;;;0.87;0.37;;;;;;;6.84;96.16;96622.38;4839568;29;21229;-84
2022/01/05 03:28:29;;;;;;;1.37;0.50;;;;;;;6.82;96.88;96623.44;4856550;29;20667;-83
2022/01/05 03:30:59;;;;;;;1.00;0.37;;;;;;;6.77;96.31;96625.56;4856980;29;20637;-83
2022/01/05 03:33:27;;;;;;;0.80;0.50;;;;;;;6.68;97.50;96621.91;4844563;29;20675;-84
2022/01/05 03:35:56;;;;;;;1.60;0.40;;;;;;;6.68;97.75;96621.09;4846103;29;20630;-84
2022/01/05 03:38:24;;;;;;;0.80;0.50;;;;;;;6.66;97.55;96628.13;4853005;29;20645;-83
2022/01/05 03:40:52;;;;;;;0.90;0.50;;;;;;;6.59;97.22;96626.97;4843513;29;20645;-83
2022/01/05 03:43:20;;;;;;;0.70;0.40;;;;;;;6.56;98.00;96611.66;4867439;29;20639;-84
2022/01/05 03:45:49;;;;;;;3.70;0.67;;;;;;;6.50;98.54;96614.72;4850310;29;20643;-83
2022/01/05 03:48:20;;;;;;;2.30;0.60;;;;;;;6.48;98.82;96632.16;4862301;29;20682;-84
2022/01/05 03:50:48;;;;;;;1.03;0.50;;;;;;;6.40;98.94;96621.53;4849700;29;20677;-84
2022/01/05 03:53:17;;;;;;;0.93;0.50;;;;;;;6.37;98.72;96615.75;4850648;29;21201;-83
2022/01/05 03:55:46;;;;;;;0.90;0.30;;;;;;;6.37;100.00;96616.56;4850544;29;20646;-83
2022/01/05 03:58:15;;;;;;;0.77;0.40;;;;;;;6.42;100.00;96624.84;4848885;29;20639;-83
2022/01/05 04:00:45;;;;;;;0.77;0.40;;;;;;;6.43;99.29;96618.69;4857919;29;20670;-83
2022/01/05 04:03:14;;;;;;;0.90;0.43;;;;;;;6.45;99.50;96622.03;4853379;29;20646;-84
2022/01/05 04:05:44;;;;;;;0.80;0.40;;;;;;;6.43;99.19;96616.13;4843613;29;21144;-84
2022/01/05 04:08:13;;;;;;;0.73;0.40;;;;;;;6.46;100.00;96605.53;4828814;29;20640;-83
2022/01/05 04:10:44;;;;;;;0.90;0.50;;;;;;;6.45;99.46;96609.06;4830778;29;20643;-84
2022/01/05 04:13:13;;;;;;;1.00;0.40;;;;;;;6.43;99.30;96610.13;4840925;29;21378;-83
2022/01/05 04:15:41;;;;;;;0.70;0.30;;;;;;;6.41;99.07;96612.81;4846812;29;21229;-83
2022/01/05 04:18:09;;;;;;;0.70;0.50;;;;;;;6.38;99.71;96618.22;4847226;29;20633;-84
2022/01/05 04:20:37;;;;;;;0.80;0.40;;;;;;;6.33;100.00;96638.47;4857776;29;20642;-83
2022/01/05 04:23:07;;;;;;;0.90;0.43;;;;;;;6.21;100.00;96636.81;4854772;29;20721;-83
2022/01/05 04:25:36;;;;;;;1.20;0.67;;;;;;;6.14;100.00;96653.72;4854633;29;20682;-84
2022/01/05 04:28:05;;;;;;;2.97;0.57;;;;;;;6.17;100.00;96645.72;4854705;29;20715;-84
2022/01/05 04:30:33;;;;;;;0.90;0.40;;;;;;;6.13;100.00;96641.72;4854847;29;21194;-83
2022/01/05 04:33:02;;;;;;;1.00;0.53;;;;;;;6.10;100.00;96657.47;4852157;29;20626;-83
2022/01/05 04:35:50;;;;;;;1.00;0.50;;;;;;;6.18;100.00;96673.25;4852890;29;21171;-83
2022/01/05 04:38:20;;;;;;;1.57;0.50;;;;;;;6.20;100.00;96670.56;4854427;29;20640;-83
2022/01/05 05:19:05;;;;;;;1.67;0.70;;;;;;;6.65;100.00;96678.31;4858163;29;21150;-83
2022/01/05 05:21:33;;;;;;;2.10;0.63;;;;;;;6.69;100.00;96703.00;4843196;29;20643;-83
2022/01/05 05:24:01;;;;;;;1.10;0.60;;;;;;;6.66;97.22;96721.38;4854258;29;20629;-84
2022/01/05 05:26:29;;;;;;;2.23;0.70;;;;;;;6.45;95.06;96750.63;4857222;29;20622;-84
2022/01/05 05:28:58;;;;;;;2.10;0.97;;;;;;;6.22;94.77;96746.31;4857604;29;20732;-84
2022/01/05 05:31:26;;;;;;;1.50;1.10;;;;;;;6.07;94.92;96767.31;4839977;29;20637;-84
2022/01/05 05:33:54;;;;;;;1.33;1.23;;;;;;;5.93;95.67;96786.41;4855427;29;20647;-83
2022/01/05 05:36:24;;;;;;;1.27;0.87;;;;;;;5.85;94.83;96793.88;4855377;29;20646;-84
2022/01/05 05:38:52;;;;;;;1.30;1.10;;;;;;;5.74;95.65;96790.38;4854938;29;20728;-83
2022/01/05 05:41:20;;;;;;;1.50;1.40;;;;;;;5.54;96.04;96806.44;4854344;29;20625;-83
2022/01/05 05:43:49;;;;;;;1.30;1.20;;;;;;;5.37;96.13;96811.94;4862216;29;20654;-83
2022/01/05 05:46:17;;;;;;;2.37;1.30;;;;;;;5.25;96.32;96827.47;4850585;29;20668;-83
2022/01/05 05:48:45;;;;;;;1.80;1.50;;;;;;;5.16;97.92;96836.66;4849879;29;20656;-84
2022/01/05 05:51:13;;;;;;;2.23;1.97;;;;;;;5.10;98.55;96846.56;4839808;29;20639;-84
2022/01/05 05:53:43;;;;;;;4.30;2.20;;;;;;;5.00;97.84;96858.44;4859104;29;20640;-84
2022/01/05 05:56:11;;;;;;;2.37;2.17;;;;;;;4.90;98.42;96860.00;4850283;29;20645;-84
2022/01/05 05:58:39;;;;;;;3.77;2.57;;;;;;;4.91;98.84;96873.72;4856530;29;20649;-84
2022/01/05 06:01:07;;;;;;;3.50;3.20;;;;;;;4.89;98.29;96873.81;4847304;29;20625;-83
2022/01/05 06:03:35;;;;;;;3.50;3.20;;;;;;;4.90;97.29;96878.06;4854510;29;20632;-84
2022/01/05 06:06:03;;;;;;;3.43;2.93;;;;;;;4.85;98.24;96889.63;4857412;29;20694;-84
2022/01/05 06:08:31;;;;;;;3.37;3.07;;;;;;;4.85;98.55;96889.63;4846149;29;20640;-83
2022/01/05 06:11:01;;;;;;;3.37;3.07;;;;;;;4.91;98.58;96905.53;4850305;29;20651;-83
2022/01/05 06:13:29;;;;;;;3.50;3.20;;;;;;;4.89;98.70;96909.16;4858681;29;20626;-83
2022/01/05 06:15:57;;;;;;;3.83;3.30;;;;;;;4.87;97.49;96918.75;4855332;29;20756;-83
2022/01/05 06:18:25;;;;;;;4.07;3.40;;;;;;;4.84;97.81;96929.28;4858379;29;20642;-83
2022/01/05 06:20:53;;;;;;;4.00;3.60;;;;;;;4.89;97.84;96940.16;4857602;29;20642;-83
2022/01/05 06:23:21;;;;;;;4.00;3.60;;;;;;;4.91;96.89;96940.88;4857057;29;20645;-83
2022/01/05 06:25:49;;;;;;;4.63;4.10;;;;;;;4.87;96.58;96949.72;4835980;29;20658;-83
2022/01/05 06:28:19;;;;;;;5.00;4.50;;;;;;;4.88;97.82;96959.16;4851281;29;20646;-83
2022/01/05 06:30:47;;;;;;;5.30;4.47;;;;;;;4.82;97.29;96955.19;4855074;29;20644;-84
2022/01/05 06:33:15;;;;;;;5.13;3.97;;;;;;;4.84;96.38;96960.25;4857189;29;20628;-84
2022/01/05 06:35:43;;;;;;;5.77;4.53;;;;;;;4.85;96.18;96961.91;4847987;29;21205;-83
2022/01/05 06:38:11;;;;;;;4.30;3.90;;;;;;;4.79;94.56;96972.63;4848279;29;20646;-83
2022/01/05 06:40:39;;;;;;;5.80;4.33;;;;;;;4.75;95.79;96979.75;4852692;29;21178;-83
2022/01/05 06:43:07;;;;;;;6.63;4.57;;;;;;;4.79;95.76;96985.56;4850870;29;20652;-83
2022/01/05 06:45:37;;;;;;;4.93;4.20;;;;;;;4.80;95.54;96982.88;4852095;29;20646;-84
2022/01/05 06:48:05;;;;;;;6.57;3.73;;;;;;;4.81;95.71;96991.44;4853877;29;20656;-83
2022/01/05 06:50:33;;;;;;;6.83;4.07;;;;;;;4.83;96.19;96994.78;4855003;29;20644;-83
2022/01/05 06:53:02;;;;;;;5.00;4.00;;;;;;;4.90;95.89;97001.19;4856226;29;20651;-84
2022/01/05 06:55:30;;;;;;;6.20;3.80;;;;;;;4.93;96.45;97022.50;4851093;29;20672;-84
2022/01/05 06:57:58;;;;;;;5.30;3.57;;;;;;;4.92;95.69;97014.84;4851303;29;20632;-83
2022/01/05 07:00:28;;;;;;;5.73;3.73;;;;;;;4.97;95.92;97012.78;4857355;29;20723;-83
2022/01/05 07:02:57;;;;;;;6.00;3.57;;;;;;;5.00;95.78;97028.91;4843088;29;20990;-83
2022/01/05 07:05:25;;;;;;;5.40;3.90;;;;;;;5.03;95.52;97028.72;4844466;29;20681;-83
2022/01/05 07:07:53;;;;;;;7.43;3.40;;;;;;;5.06;94.94;97043.22;4853261;29;21237;-83
2022/01/05 07:10:21;;;;;;;5.63;3.30;;;;;;;5.09;95.13;97040.44;4861103;29;20638;-84
2022/01/05 07:12:50;;;;;;;5.77;3.00;;;;;;;5.08;95.79;97052.50;4837624;29;20646;-83
2022/01/05 07:15:18;;;;;;;6.30;3.20;;;;;;;5.10;95.86;97055.84;4849161;29;20665;-84
2022/01/05 07:17:46;;;;;;;4.20;2.20;;;;;;;5.08;95.02;97068.00;4850376;29;20640;-83
2022/01/05 07:20:16;;;;;;;3.47;2.60;;;;;;;5.03;94.44;97074.41;4855015;29;20966;-84
2022/01/05 07:22:45;;;;;;;6.33;2.17;;;;;;;4.99;93.60;97072.94;4854013;29;20650;-83
2022/01/05 07:25:13;;;;;;;4.40;2.33;;;;;;;4.94;93.86;97075.78;4849698;29;20666;-84
2022/01/05 07:27:42;;;;;;;3.50;1.90;;;;;;;4.95;94.18;97076.66;4853398;29;21239;-83
2022/01/05 07:30:12;;;;;;;3.63;1.97;;;;;;;4.93;93.75;97079.31;4835298;29;21214;-83
2022/01/05 07:32:40;;;;;;;4.70;1.97;;;;;;;4.91;94.10;97070.00;4853489;29;20714;-83
2022/01/05 07:35:09;;;;;;;4.40;2.30;;;;;;;4.91;94.70;97078.56;4855101;29;20636;-83
2022/01/05 07:37:39;;;;;;;2.43;1.80;;;;;;;4.92;94.38;97079.41;4846478;29;20718;-83
2022/01/05 07:40:08;;;;;;;2.10;1.77;;;;;;;4.96;94.55;97084.31;4854473;29;21199;-83
2022/01/05 07:42:36;;;;;;;2.53;1.90;;;;;;;4.99;94.04;97093.59;4835333;29;21000;-84
2022/01/05 07:45:06;;;;;;;2.93;1.87;;;;;;;4.98;94.42;97110.03;4849631;29;20632;-83
2022/01/05 07:47:34;;;;;;;3.60;1.67;;;;;;;4.99;93.37;97109.94;4844949;29;20670;-84
2022/01/05 07:50:03;;;;;;;2.43;1.70;;;;;;;4.96;94.57;97109.28;4846461;29;20663;-83
2022/01/05 07:52:31;;;;;;;4.10;1.57;;;;;;;4.95;93.05;97123.97;4843659;29;21063;-83
2022/01/05 07:55:02;;;;;;;2.67;1.60;;;;;;;4.94;93.23;97126.63;4844711;29;20656;-83
2022/01/05 07:57:30;;;;;;;3.07;1.30;;;;;;;4.95;92.11;97142.03;4845653;29;21114;-83
2022/01/05 07:59:58;;;;;;;2.20;1.33;;;;;;;4.86;92.67;97146.94;4849118;29;20667;-84
2022/01/05 08:02:26;;;;;;;2.10;1.40;;;;;;;4.79;90.14;97154.22;4848390;29;21186;-83
2022/01/05 08:04:55;;;;;;;3.30;1.90;;;;;;;4.64;91.83;97163.81;4857441;29;20638;-83
2022/01/05 08:07:23;;;;;;;6.27;2.70;;;;;;;4.47;91.02;97162.25;4857163;29;20666;-83
2022/01/05 08:09:51;;;;;;;8.23;3.73;;;;;;;4.42;92.31;97169.44;4856770;29;20636;-84
2022/01/05 08:12:20;;;;;;;4.43;2.70;;;;;;;4.41;91.87;97175.50;4871556;29;20625;-83
2022/01/05 08:14:49;;;;;;;4.90;1.70;;;;;;;4.42;90.13;97174.59;4858706;29;20713;-83
2022/01/05 08:17:18;;;;;;;2.13;1.40;;;;;;;4.27;92.10;97183.22;4856555;29;20639;-84
2022/01/05 08:19:46;;;;;;;4.10;1.93;;;;;;;4.20;91.81;97187.06;4857367;29;20644;-83
2022/01/05 08:22:14;;;;;;;4.13;2.07;;;;;;;4.20;92.24;97188.84;4858950;29;21181;-83
2022/01/05 08:24:42;;;;;;;4.13;1.73;;;;;;;4.23;92.45;97193.81;4859652;29;20642;-83
2022/01/05 08:27:11;;;;;;;2.33;1.47;;;;;;;4.33;93.16;97203.53;4851910;29;20720;-84
2022/01/05 08:29:40;;;;;;;2.20;1.87;;;;;;;4.35;92.83;97209.41;4852207;29;20633;-84
2022/01/05 08:32:09;;;;;;;3.30;2.20;;;;;;;4.38;93.03;97209.22;4855792;29;21024;-83
2022/01/05 08:34:37;;;;;;;3.10;1.83;;;;;;;4.42;93.27;97220.19;4847730;29;20646;-84
2022/01/05 08:37:05;;;;;;;3.90;1.90;;;;;;;4.45;93.97;97220.88;4853274;29;20723;-83
2022/01/05 08:39:34;;;;;;;3.07;2.13;;;;;;;4.46;93.18;97232.03;4856164;29;20668;-83
2022/01/05 08:42:02;;;;;;;4.60;2.00;;;;;;;4.52;93.58;97239.41;4853034;29;20638;-83
2022/01/05 08:44:30;;;;;;;4.10;2.20;;;;;;;4.51;93.21;97241.16;4850912;29;20638;-83
2022/01/05 08:47:00;;;;;;;2.73;1.70;;;;;;;4.57;92.67;97250.28;4855381;29;20674;-83
2022/01/05 08:49:28;;;;;;;7.23;2.30;;;;;;;4.59;92.80;97251.03;4844965;29;20657;-83
2022/01/05 08:51:56;;;;;;;6.70;2.27;;;;;;;4.63;92.67;97242.19;4858916;29;20635;-83
2022/01/05 08:54:24;;;;;;;5.27;2.20;;;;;;;4.70;91.09;97257.22;4853548;29;21005;-83
2022/01/05 08:56:54;;;;;;;5.13;1.90;;;;;;;4.70;89.84;97242.56;4846388;29;20658;-83
2022/01/05 08:59:24;;;;;;;7.53;2.20;;;;;;;4.66;88.80;97252.34;4857815;29;20633;-83
2022/01/05 09:01:52;;;;;;;7.93;2.10;;;;;;;4.63;87.63;97255.09;4859092;29;21195;-83
2022/01/05 09:04:22;;;;;;;6.27;1.67;;;;;;;4.51;87.08;97261.81;4843116;29;20652;-83
2022/01/05 09:06:50;;;;;;;5.73;1.90;;;;;;;4.49;85.77;97263.63;4857428;29;21041;-83
2022/01/05 09:09:18;;;;;;;4.37;1.87;;;;;;;4.44;87.14;97264.84;4837543;29;21211;-83
2022/01/05 09:11:47;;;;;;;3.73;1.87;;;;;;;4.43;87.45;97284.63;4841634;29;20644;-83
2022/01/05 09:14:15;;;;;;;4.10;2.07;;;;;;;4.49;87.15;97293.78;4856884;29;20667;-83
2022/01/05 09:16:43;;;;;;;4.27;1.60;;;;;;;4.46;86.62;97291.38;4847823;29;21145;-83
2022/01/05 09:19:11;;;;;;;2.90;1.70;;;;;;;4.43;86.62;97297.53;4851507;29;21009;-83
2022/01/05 09:21:41;;;;;;;6.67;2.40;;;;;;;4.43;86.75;97300.13;4854835;29;20631;-83
2022/01/05 09:24:09;;;;;;;3.93;1.73;;;;;;;4.50;87.51;97298.03;4854942;29;20724;-83
2022/01/05 09:26:37;;;;;;;9.43;2.70;;;;;;;4.50;85.24;97304.03;4853263;29;20675;-83
2022/01/05 09:29:05;;;;;;;6.63;2.30;;;;;;;4.55;88.49;97307.16;4853245;29;20649;-83
2022/01/05 09:31:34;;;;;;;3.53;1.90;;;;;;;4.56;86.27;97310.59;4850311;29;20644;-83
2022/01/05 09:34:02;;;;;;;6.23;1.90;;;;;;;4.52;86.06;97315.09;4855739;29;20631;-83
2022/01/05 09:36:35;;;;;;;5.43;2.47;;;;;;;4.51;86.32;97313.44;4853367;29;20628;-84
2022/01/05 09:42:00;;;;;;;5.87;2.53;;;;;;;4.51;86.79;97331.50;4858584;29;20643;-83
2022/01/05 09:44:30;;;;;;;3.33;2.10;;;;;;;4.53;87.68;97332.25;4836242;29;20628;-84
2022/01/05 09:47:26;;;;;;;4.90;2.50;;;;;;;4.59;88.17;97344.81;4848173;29;20750;-84
2022/01/05 09:50:00;;;;;;;5.07;2.37;;;;;;;4.61;88.38;97348.13;4857078;29;20649;-83
2022/01/05 09:52:28;;;;;;;4.97;2.17;;;;;;;4.67;87.71;97347.78;4850381;29;20761;-83
2022/01/05 09:54:58;;;;;;;6.30;2.80;;;;;;;4.69;87.21;97344.19;4864609;29;20632;-83
2022/01/05 09:57:27;;;;;;;7.33;2.30;;;;;;;4.77;85.63;97346.34;4851532;29;20731;-83
2022/01/05 09:59:56;;;;;;;5.17;1.90;;;;;;;4.70;85.53;97348.41;4858956;29;20664;-84
2022/01/05 10:02:24;;;;;;;9.67;2.70;;;;;;;4.70;85.42;97350.19;4855167;29;20706;-84
2022/01/05 10:04:53;;;;;;;3.93;2.37;;;;;;;4.70;83.03;97357.91;4857245;29;20633;-83
2022/01/05 10:07:21;;;;;;;3.93;2.03;;;;;;;4.62;81.39;97347.22;4854051;29;21272;-83
2022/01/05 10:09:49;;;;;;;3.17;1.80;;;;;;;4.60;81.33;97359.38;4849800;29;21259;-83
2022/01/05 10:12:19;;;;;;;4.83;1.90;;;;;;;4.58;81.29;97368.94;4864357;29;21353;-83
2022/01/05 10:14:48;;;;;;;6.00;1.90;;;;;;;4.57;80.51;97369.88;4860120;29;20630;-83
2022/01/05 10:17:23;;;;;;;5.27;2.20;;;;;;;4.55;79.23;97371.69;4836702;29;20630;-83
2022/01/05 10:19:56;;;;;;;3.50;1.60;;;;;;;4.58;80.61;97386.19;4850736;29;20642;-83
2022/01/05 10:22:32;;;;;;;6.00;2.00;;;;;;;4.59;79.00;97388.69;4834838;29;20634;-83
2022/01/05 10:25:01;;;;;;;5.77;1.60;;;;;;;4.58;80.41;97396.53;4854406;29;20721;-83
2022/01/05 10:27:31;;;;;;;4.50;2.40;;;;;;;4.58;79.67;97392.19;4852642;29;20670;-83
2022/01/05 10:30:01;;;;;;;6.57;1.70;;;;;;;4.61;78.84;97392.00;4855343;29;20709;-83
2022/01/05 10:32:32;;;;;;;6.07;2.00;;;;;;;4.56;75.84;97390.63;4856118;29;20636;-85
2022/01/05 10:35:08;;;;;;;5.10;1.83;;;;;;;4.55;76.70;97391.53;4842881;29;20727;-85
2022/01/05 10:37:37;;;;;;;7.97;2.03;;;;;;;4.56;76.79;97403.53;4846965;29;20646;-85
2022/01/05 10:40:17;;;;;;;12.03;2.07;;;;;;;4.57;77.43;97400.84;4849359;29;21010;-85
2022/01/05 10:42:49;;;;;;;6.37;1.40;;;;;;;4.62;79.50;97398.03;4847758;29;20646;-85
2022/01/05 10:45:18;;;;;;;5.10;1.90;;;;;;;4.69;78.54;97403.56;4845407;29;21055;-85
2022/01/05 10:48:02;;;;;;;9.10;2.03;;;;;;;4.72;78.44;97394.81;4846201;29;21315;-85
2022/01/05 10:50:30;;;;;;;3.37;1.90;;;;;;;4.78;80.41;97394.47;4861117;29;20634;-85
2022/01/05 10:52:59;;;;;;;11.63;1.87;;;;;;;4.86;78.49;97405.22;4832835;29;21177;-86
2022/01/05 10:55:28;;;;;;;6.47;2.17;;;;;;;4.88;77.24;97400.78;4838123;29;20675;-85
2022/01/05 10:58:01;;;;;;;5.10;1.90;;;;;;;4.94;77.29;97405.59;4852019;29;20630;-86
2022/01/05 11:00:39;;;;;;;6.37;1.37;;;;;;;4.99;77.50;97409.59;4870851;29;20602;-83
2022/01/05 11:03:23;;;;;;;6.17;1.83;;;;;;;5.10;78.80;97403.78;4855232;29;20659;-83
2022/01/05 11:06:07;;;;;;;7.43;1.93;;;;;;;5.19;78.04;97412.66;4852912;29;20668;-84
2022/01/05 11:08:48;;;;;;;4.80;1.93;;;;;;;5.15;77.10;97405.19;4867747;29;20700;-83
2022/01/05 11:11:36;;;;;;;7.83;2.20;;;;;;;5.13;76.02;97410.44;4865728;29;20715;-84
2022/01/05 11:14:08;;;;;;;7.43;2.13;;;;;;;5.20;77.03;97409.19;4834655;29;20713;-83
2022/01/05 11:16:38;;;;;;;8.03;1.97;;;;;;;5.21;76.79;97410.81;4847642;29;21124;-83
2022/01/05 11:19:20;;;;;;;6.60;2.37;;;;;;;5.25;76.83;97398.56;4850110;29;21187;-83
2022/01/05 11:22:06;;;;;;;6.90;2.17;;;;;;;5.25;76.86;97414.06;4853893;29;20641;-83
2022/01/05 11:24:37;;;;;;;7.10;1.97;;;;;;;5.20;75.33;97414.34;4848087;29;20643;-83
2022/01/05 11:27:07;;;;;;;7.47;2.10;;;;;;;5.18;75.43;97410.19;4845781;29;20649;-83
2022/01/05 11:29:37;;;;;;;4.47;2.20;;;;;;;5.22;76.21;97415.06;4843261;29;20637;-83
2022/01/05 11:32:08;;;;;;;6.37;2.80;;;;;;;5.39;76.35;97409.75;4864940;29;20625;-83
2022/01/05 11:34:36;;;;;;;5.57;2.23;;;;;;;5.56;74.94;97408.75;4851620;29;20646;-83
2022/01/05 11:37:07;;;;;;;13.10;2.70;;;;;;;5.49;75.52;97416.06;4850509;29;21217;-83
2022/01/05 11:39:39;;;;;;;10.63;2.70;;;;;;;5.42;74.83;97414.75;4840748;29;21050;-83
2022/01/05 11:42:10;;;;;;;6.80;2.90;;;;;;;5.43;75.43;97425.94;4864089;29;20725;-83
2022/01/05 11:44:48;;;;;;;8.60;3.03;;;;;;;5.44;75.24;97432.75;4831506;29;20638;-83
2022/01/05 11:47:21;;;;;;;6.37;2.13;;;;;;;5.44;74.25;97433.59;4855316;29;20614;-83
2022/01/05 11:49:49;;;;;;;6.03;2.93;;;;;;;5.36;74.85;97440.94;4858710;29;20639;-84
2022/01/05 11:52:17;;;;;;;4.70;2.23;;;;;;;5.34;75.73;97441.97;4859534;29;20632;-83
2022/01/05 11:55:02;;;;;;;6.93;2.20;;;;;;;5.31;75.24;97439.56;4858382;29;20638;-83
2022/01/05 11:57:30;;;;;;;11.53;2.70;;;;;;;5.25;75.82;97437.34;4856384;29;20635;-83
2022/01/05 12:00:18;;;;;;;5.80;2.77;;;;;;;5.29;75.43;97439.66;4859964;29;21275;-83
2022/01/05 12:02:46;;;;;;;7.40;2.80;;;;;;;5.30;76.03;97433.53;4846448;29;20638;-83
2022/01/05 12:05:14;;;;;;;7.90;2.70;;;;;;;5.33;74.15;97443.72;4856352;29;20657;-83
2022/01/05 12:07:44;;;;;;;5.53;3.13;;;;;;;5.32;74.18;97433.47;4857629;29;20634;-83
2022/01/05 12:10:16;;;;;;;7.87;3.30;;;;;;;5.29;74.24;97439.66;4853285;29;20645;-83
2022/01/05 12:12:56;;;;;;;5.43;2.50;;;;;;;5.23;75.29;97446.91;4837841;29;21289;-84
2022/01/05 12:15:48;;;;;;;8.17;2.60;;;;;;;5.26;76.11;97460.50;4854714;29;20714;-83
2022/01/05 12:18:26;;;;;;;5.80;3.13;;;;;;;5.29;75.16;97468.09;4848382;29;20628;-84
2022/01/05 12:20:57;;;;;;;6.23;2.77;;;;;;;5.24;74.67;97458.91;4851366;29;21034;-83
2022/01/05 12:23:27;;;;;;;5.60;2.53;;;;;;;5.21;72.66;97467.69;4850200;29;20638;-83
2022/01/05 12:26:14;;;;;;;10.33;3.10;;;;;;;5.14;74.21;97470.69;4852573;29;21165;-83
2022/01/05 12:28:52;;;;;;;8.63;2.60;;;;;;;5.14;74.79;97466.38;4851665;29;21078;-83
2022/01/05 12:31:53;;;;;;;5.13;2.40;;;;;;;5.13;75.45;97463.03;4863082;29;21194;-83
2022/01/05 12:34:56;;;;;;;6.03;2.50;;;;;;;5.12;74.69;97461.38;4851197;29;20636;-83